Time;durP1;ratioP1;P1;durP2;ratioP2;P2;SDS_P1;SDS_P2;PMS_P1;PMS_P2;Temp;Humidity;BMP_temperature;BMP_pressure;BME280_temperature;BME280_humidity;BME280_pressure;Samples;Min_cycle;Max_cycle;Signal;HPM_P1;HPM_P2
2021/09/23 00:01:03;;;;;;;;;;;;;;;;;;;;;
2021/09/23 00:06:45;;;;;;;;;18.50;18.25;;;;;18.67;53.02;101996.91;5003064;28;45318;-66
2021/09/23 00:09:18;;;;;;;;;19.50;16.50;;;;;18.37;53.42;101937.00;4994283;28;45217;-66
2021/09/23 00:11:53;;;;;;;;;14.75;14.75;;;;;18.45;53.10;101948.34;5000426;28;45331;-66
2021/09/23 00:14:31;;;;;;;;;;;;;;;;;;;;;
2021/09/23 00:17:24;;;;;;;;;;;;;;;;;;;;;
2021/09/23 00:19:50;;;;;;;;;16.50;15.25;;;;;18.58;53.47;101966.72;4980105;28;68692;-66
2021/09/23 00:22:20;;;;;;;;;12.00;12.00;;;;;18.42;53.12;101929.56;4993859;28;45440;-66
2021/09/23 00:24:46;;;;;;;;;10.00;10.00;;;;;18.46;53.10;101943.81;4981036;28;45644;-66
2021/09/23 00:27:19;;;;;;;;;17.00;14.75;;;;;18.32;53.15;101914.72;4981340;28;45433;-66
2021/09/23 00:29:56;;;;;;;;;15.00;13.00;;;;;18.17;53.32;101899.22;4979758;28;45429;-66
2021/09/23 00:32:33;;;;;;;;;14.50;12.50;;;;;18.54;53.51;101965.09;4979485;28;46058;-66
2021/09/23 00:35:25;;;;;;;;;12.50;12.50;;;;;18.21;53.33;101907.13;4980828;28;46612;-66
2021/09/23 00:37:58;;;;;;;;;16.50;13.75;;;;;18.13;53.19;101907.47;4991927;28;45363;-66
2021/09/23 00:40:54;;;;;;;;;;;;;;;;;;;;;
2021/09/23 00:43:46;;;;;;;;;14.00;13.75;;;;;18.26;53.58;101923.13;4984805;28;71905;-66
2021/09/23 00:46:27;;;;;;;;;;;;;;;;;;;;;
2021/09/23 00:49:05;;;;;;;;;;;;;;;;;;;;;
2021/09/23 00:51:46;;;;;;;;;;;;;;;;;;;;;
2021/09/23 00:54:31;;;;;;;;;;;;;;;;;;;;;
2021/09/23 00:57:27;;;;;;;;;;;;;;;;;;;;;
2021/09/23 01:00:28;;;;;;;;;;;;;;;;;;;;;
2021/09/23 01:02:57;;;;;;;;;14.50;14.25;;;;;18.01;53.86;101882.81;4979333;28;67242;-66
2021/09/23 01:05:27;;;;;;;;;14.00;14.00;;;;;17.98;53.65;101880.28;4983990;28;45465;-66
2021/09/23 01:08:08;;;;;;;;;;;;;;;;;;;;;
2021/09/23 01:10:47;;;;;;;;;;;;;;;;;;;;;
2021/09/23 01:13:33;;;;;;;;;18.00;15.00;;;;;18.13;53.98;101890.41;4979569;28;68708;-66
2021/09/23 01:18:49;;;;;;;;;14.00;14.00;;;;;18.02;53.87;101863.84;4989175;28;45639;-66
2021/09/23 01:21:19;;;;;;;;;14.00;13.00;;;;;18.21;53.74;101887.31;5000368;28;45483;-66
2021/09/23 01:23:45;;;;;;;;;17.25;15.25;;;;;17.94;53.59;101850.72;5001809;28;45442;-66
2021/09/23 01:26:48;;;;;;;;;14.00;14.00;;;;;17.96;53.73;101850.66;4991353;28;45489;-66
2021/09/23 01:29:32;;;;;;;;;12.75;12.50;;;;;18.21;53.97;101885.50;4982277;28;47163;-66
2021/09/23 01:32:06;;;;;;;;;14.75;13.75;;;;;18.02;54.00;101847.63;4982058;28;45389;-66
2021/09/23 01:34:44;;;;;;;;;15.25;15.25;;;;;18.24;53.97;101884.47;4983913;28;45166;-66
2021/09/23 01:37:20;;;;;;;;;;;;;;;;;;;;;
2021/09/23 01:39:46;;;;;;;;;16.25;14.50;;;;;17.97;54.32;101844.28;4994201;28;76591;-66
2021/09/23 01:42:24;;;;;;;;;;;;;;;;;;;;;
2021/09/23 01:45:02;;;;;;;;;;;;;;;;;;;;;
2021/09/23 01:47:39;;;;;;;;;13.00;13.00;;;;;18.02;54.23;101850.34;4992061;28;71655;-66
2021/09/23 01:50:25;;;;;;;;;12.50;12.50;;;;;18.03;54.13;101849.41;4996619;28;46851;-66
2021/09/23 01:53:03;;;;;;;;;;;;;;;;;;;;;
2021/09/23 01:55:31;;;;;;;;;12.50;12.50;;;;;17.65;54.21;101787.19;4997623;28;69174;-66
2021/09/23 01:58:07;;;;;;;;;;;;;;;;;;;;;
2021/09/23 02:00:42;;;;;;;;;16.50;13.50;;;;;17.84;54.47;101825.03;4982132;28;75322;-66
2021/09/23 02:03:26;;;;;;;;;;;;;;;;;;;;;
2021/09/23 02:05:52;;;;;;;;;19.50;17.00;;;;;17.68;54.44;101800.53;4995153;28;70380;-66
2021/09/23 02:08:20;;;;;;;;;13.50;10.75;;;;;17.66;54.62;101807.84;4982676;28;45228;-66
2021/09/23 02:11:12;;;;;;;;;16.00;14.75;;;;;17.96;54.45;101854.22;4981368;28;46645;-66
2021/09/23 02:13:46;;;;;;;;;15.75;15.00;;;;;17.67;54.72;101808.72;4981630;28;45204;-66
2021/09/23 02:16:24;;;;;;;;;16.50;14.50;;;;;17.75;54.49;101820.03;4987887;28;45190;-66
2021/09/23 02:18:59;;;;;;;;;;;;;;;;;;;;;
2021/09/23 02:21:44;;;;;;;;;;;;;;;;;;;;;
2021/09/23 02:24:18;;;;;;;;;13.25;12.50;;;;;17.70;54.25;101813.97;5000826;28;72781;-66
2021/09/23 02:26:46;;;;;;;;;16.75;13.50;;;;;17.88;54.68;101842.88;4989392;28;45462;-66
2021/09/23 02:29:21;;;;;;;;;;;;;;;;;;;;;
2021/09/23 02:31:59;;;;;;;;;14.50;14.50;;;;;17.69;54.77;101813.13;5001098;28;73912;-66
2021/09/23 02:34:29;;;;;;;;;12.75;12.75;;;;;17.81;54.87;101832.38;5001606;28;45518;-66
2021/09/23 02:37:20;;;;;;;;;14.00;12.25;;;;;17.46;55.13;101779.03;4987158;28;45478;-66
2021/09/23 02:40:03;;;;;;;;;;;;;;;;;;;;;
2021/09/23 02:42:31;;;;;;;;;16.75;16.00;;;;;17.75;55.30;101814.66;5000985;28;74105;-66
2021/09/23 02:45:07;;;;;;;;;;;;;;;;;;;;;
2021/09/23 02:47:48;;;;;;;;;;;;;;;;;;;;;
2021/09/23 02:50:16;;;;;;;;;19.25;18.75;;;;;17.32;55.66;101759.88;5000423;28;74195;-66
2021/09/23 02:52:49;;;;;;;;;22.75;21.75;;;;;17.60;55.35;101813.50;4995605;28;45453;-66
2021/09/23 02:55:17;;;;;;;;;20.50;19.00;;;;;17.53;55.56;101802.09;4982714;28;45602;-66
2021/09/23 02:57:45;;;;;;;;;26.50;22.00;;;;;17.58;55.78;101804.59;4990732;28;45464;-66
2021/09/23 03:00:18;;;;;;;;;20.75;18.25;;;;;17.50;55.68;101791.44;5009118;28;45419;-66
2021/09/23 03:02:50;;;;;;;;;23.00;19.50;;;;;17.66;55.98;101815.03;4981903;28;45603;-66
2021/09/23 03:05:17;;;;;;;;;20.75;19.50;;;;;17.66;55.90;101810.53;4982319;28;45380;-66
2021/09/23 03:08:10;;;;;;;;;;;;;;;;;;;;;
2021/09/23 03:10:39;;;;;;;;;17.75;16.75;;;;;17.48;55.73;101787.94;4981108;28;71822;-66
2021/09/23 03:13:23;;;;;;;;;;;;;;;;;;;;;
2021/09/23 03:15:57;;;;;;;;;23.00;20.75;;;;;17.36;55.60;101767.78;4985024;28;71419;-66
2021/09/23 03:18:25;;;;;;;;;21.75;20.00;;;;;17.67;55.91;101817.69;5009014;28;45372;-66
2021/09/23 03:21:03;;;;;;;;;;;;;;;;;;;;;
2021/09/23 03:23:29;;;;;;;;;19.00;19.00;;;;;17.43;55.72;101772.91;4999947;28;74323;-66
2021/09/23 03:26:05;;;;;;;;;;;;;;;;;;;;;
2021/09/23 03:28:46;;;;;;;;;21.50;19.25;;;;;17.39;56.34;101770.34;4985338;28;68902;-66
2021/09/23 03:31:17;;;;;;;;;18.25;18.25;;;;;17.49;56.27;101792.41;4981866;28;45351;-66
2021/09/23 03:33:43;;;;;;;;;14.75;14.00;;;;;17.33;56.49;101764.34;4981644;28;46176;-66
2021/09/23 03:36:11;;;;;;;;;20.25;18.75;;;;;17.17;56.11;101737.16;4988170;28;45341;-66
2021/09/23 03:38:58;;;;;;;;;;;;;;;;;;;;;
2021/09/23 03:41:32;;;;;;;;;19.75;18.25;;;;;17.50;56.57;101782.47;4985333;28;71243;-66
2021/09/23 03:43:58;;;;;;;;;21.50;20.00;;;;;17.38;56.78;101757.78;4991654;28;46418;-66
2021/09/23 03:46:37;;;;;;;;;18.50;18.25;;;;;17.40;56.25;101763.97;4997090;28;45490;-66
2021/09/23 03:49:22;;;;;;;;;19.75;18.75;;;;;17.36;56.46;101758.81;4996698;28;45375;-66
2021/09/23 03:51:57;;;;;;;;;22.75;20.75;;;;;17.30;56.48;101753.69;4979820;28;45684;-66
2021/09/23 03:54:33;;;;;;;;;20.75;20.75;;;;;17.26;56.45;101742.16;5002698;28;45957;-66
2021/09/23 03:57:01;;;;;;;;;18.75;17.25;;;;;17.33;56.57;101764.34;4994459;28;45387;-66
2021/09/23 03:59:41;;;;;;;;;;;;;;;;;;;;;
2021/09/23 04:02:19;;;;;;;;;;;;;;;;;;;;;
2021/09/23 04:04:55;;;;;;;;;21.25;17.75;;;;;17.08;56.82;101724.09;4979973;28;75274;-66
2021/09/23 04:07:21;;;;;;;;;21.50;18.75;;;;;17.27;56.77;101759.22;4985593;28;45534;-66
2021/09/23 04:09:57;;;;;;;;;;;;;;;;;;;;;
2021/09/23 04:12:22;;;;;;;;;23.75;19.25;;;;;17.26;57.03;101752.03;4997932;28;72985;-66
2021/09/23 04:14:50;;;;;;;;;21.25;19.00;;;;;17.16;56.73;101746.22;4995719;28;46421;-66
2021/09/23 04:17:31;;;;;;;;;;;;;;;;;;;;;
2021/09/23 04:20:09;;;;;;;;;;;;;;;;;;;;;
2021/09/23 04:22:35;;;;;;;;;19.00;16.75;;;;;16.97;56.91;101725.44;4979613;28;72807;-66
2021/09/23 04:25:03;;;;;;;;;20.50;17.75;;;;;17.15;57.14;101763.31;4992143;28;48099;-66
2021/09/23 04:27:32;;;;;;;;;16.50;15.00;;;;;17.04;57.03;101744.94;4983923;28;45442;-66
2021/09/23 04:30:00;;;;;;;;;21.00;19.75;;;;;17.34;57.32;101790.38;4981171;28;45447;-66
2021/09/23 04:32:28;;;;;;;;;16.75;16.75;;;;;17.31;56.97;101794.09;5021666;28;45644;-66
2021/09/23 04:35:05;;;;;;;;;;;;;;;;;;;;;
2021/09/23 04:37:33;;;;;;;;;17.25;17.00;;;;;16.95;57.02;101748.88;4995574;28;72861;-66
2021/09/23 04:39:59;;;;;;;;;17.50;16.50;;;;;17.13;57.46;101770.63;4996078;28;45248;-66
2021/09/23 04:42:45;;;;;;;;;19.75;19.00;;;;;17.02;57.42;101766.56;4980340;28;45287;-66
2021/09/23 04:45:21;;;;;;;;;;;;;;;;;;;;;
2021/09/23 04:48:02;;;;;;;;;17.00;17.00;;;;;17.23;57.76;101796.25;4997344;28;71612;-66
2021/09/23 04:50:32;;;;;;;;;20.50;18.25;;;;;17.01;57.19;101764.81;4996053;28;46345;-66
2021/09/23 04:53:00;;;;;;;;;20.00;18.00;;;;;17.01;57.64;101764.81;5012586;28;45379;-66
2021/09/23 04:55:28;;;;;;;;;16.75;16.00;;;;;17.02;57.68;101773.75;4998562;28;46487;-66
2021/09/23 04:57:58;;;;;;;;;19.00;17.50;;;;;16.93;57.82;101761.56;4995002;28;46227;-66
2021/09/23 05:00:46;;;;;;;;;20.25;18.00;;;;;16.87;57.67;101742.94;4979350;28;45370;-66
2021/09/23 05:03:21;;;;;;;;;20.50;20.00;;;;;16.96;57.75;101765.97;4978997;28;45322;-66
2021/09/23 05:06:04;;;;;;;;;;;;;;;;;;;;;
2021/09/23 05:08:40;;;;;;;;;18.25;16.25;;;;;16.99;57.53;101784.69;4979175;28;72931;-66
2021/09/23 05:11:15;;;;;;;;;17.75;16.75;;;;;16.98;58.01;101778.41;4995446;28;45497;-66
2021/09/23 05:13:45;;;;;;;;;18.75;16.75;;;;;17.00;57.92;101786.44;4980250;28;45545;-66
2021/09/23 05:16:19;;;;;;;;;19.75;18.75;;;;;17.16;57.99;101828.00;4987627;28;45354;-66
2021/09/23 05:18:55;;;;;;;;;19.75;16.50;;;;;16.82;57.65;101775.47;5014337;28;45339;-66
2021/09/23 05:21:21;;;;;;;;;18.00;17.00;;;;;16.75;58.16;101768.56;4998495;28;45335;-66
2021/09/23 05:23:51;;;;;;;;;20.50;19.00;;;;;16.90;57.70;101787.78;4983329;28;45613;-66
2021/09/23 05:26:21;;;;;;;;;17.00;17.00;;;;;17.01;57.91;101815.19;4988627;28;47467;-66
2021/09/23 05:28:52;;;;;;;;;16.50;15.75;;;;;16.97;58.13;101806.34;4999572;28;45467;-66
2021/09/23 05:31:35;;;;;;;;;19.50;17.50;;;;;16.81;57.69;101780.94;5003053;28;45468;-66
2021/09/23 05:34:07;;;;;;;;;15.25;14.50;;;;;17.04;57.69;101821.31;4987117;28;45403;-66
2021/09/23 05:36:38;;;;;;;;;18.50;18.25;;;;;16.93;57.88;101817.31;4980249;28;46865;-66
2021/09/23 05:39:16;;;;;;;;;;;;;;;;;;;;;
2021/09/23 05:41:54;;;;;;;;;;;;;;;;;;;;;
2021/09/23 05:44:23;;;;;;;;;19.25;16.25;;;;;16.73;58.02;101783.94;4989918;28;71198;-66
2021/09/23 05:46:59;;;;;;;;;15.25;15.25;;;;;16.85;58.03;101815.81;4993578;28;48994;-66
2021/09/23 05:49:24;;;;;;;;;17.50;16.75;;;;;16.90;57.70;101823.72;4979961;28;45466;-66
2021/09/23 05:51:49;;;;;;;;;16.00;15.75;;;;;17.06;57.69;101840.16;4987170;28;45319;-66
2021/09/23 05:54:15;;;;;;;;;20.25;18.00;;;;;17.06;57.70;101844.63;4991170;28;45387;-66
2021/09/23 05:56:41;;;;;;;;;16.50;16.50;;;;;17.05;57.67;101846.47;4999382;28;46461;-66
2021/09/23 05:59:08;;;;;;;;;19.00;17.25;;;;;17.02;57.92;101841.19;4988928;28;45482;-66
2021/09/23 06:01:34;;;;;;;;;19.75;18.50;;;;;17.03;58.05;101851.94;4993228;28;45287;-67
2021/09/23 06:03:59;;;;;;;;;18.00;16.25;;;;;16.97;58.17;101841.41;5006149;28;45462;-67
2021/09/23 06:06:25;;;;;;;;;16.75;16.00;;;;;16.99;58.10;101846.72;4979908;28;45431;-66
2021/09/23 06:08:50;;;;;;;;;15.75;15.75;;;;;17.06;58.10;101852.72;4982720;28;45473;-67
2021/09/23 06:11:16;;;;;;;;;20.25;19.25;;;;;17.07;58.05;101860.75;4995440;28;45427;-67
2021/09/23 06:13:43;;;;;;;;;17.75;17.50;;;;;17.09;58.28;101861.59;5000873;28;45374;-67
2021/09/23 06:16:09;;;;;;;;;17.00;16.00;;;;;17.02;58.20;101849.28;4996685;28;46393;-67
2021/09/23 06:18:37;;;;;;;;;18.75;17.50;;;;;17.05;58.21;101854.56;4991542;28;45255;-70
2021/09/23 06:21:07;;;;;;;;;23.00;20.50;;;;;17.01;57.89;101852.94;4990853;28;45276;-71
2021/09/23 06:23:35;;;;;;;;;32.25;31.00;;;;;17.01;58.25;101851.13;4997566;28;45473;-71
2021/09/23 06:26:07;;;;;;;;;19.50;18.25;;;;;16.92;57.82;101826.34;4985241;28;47277;-70
2021/09/23 06:28:40;;;;;;;;;20.75;20.75;;;;;16.87;58.07;101820.28;5017198;28;45424;-69
2021/09/23 06:31:10;;;;;;;;;19.75;18.00;;;;;17.13;58.07;101867.75;4983663;28;45397;-70
2021/09/23 06:33:45;;;;;;;;;18.25;15.25;;;;;16.85;57.96;101821.19;4993969;28;45567;-70
2021/09/23 06:36:11;;;;;;;;;18.50;18.50;;;;;16.84;57.64;101826.66;4982381;28;46376;-70
2021/09/23 06:38:39;;;;;;;;;17.75;15.75;;;;;16.85;57.81;101828.41;4997141;28;45257;-69
2021/09/23 06:41:28;;;;;;;;;19.50;17.50;;;;;16.88;58.25;101839.09;5006282;28;45521;-69
2021/09/23 06:44:02;;;;;;;;;16.50;15.75;;;;;16.93;57.99;101844.28;4994855;28;45465;-69
2021/09/23 06:46:27;;;;;;;;;18.75;17.25;;;;;16.94;58.25;101852.31;4980763;28;48654;-67
2021/09/23 06:48:53;;;;;;;;;17.75;17.00;;;;;17.00;58.24;101860.13;4993270;28;45791;-70
2021/09/23 06:51:19;;;;;;;;;20.00;19.25;;;;;17.09;58.24;101877.78;4992898;28;45431;-68
2021/09/23 06:53:59;;;;;;;;;25.00;22.75;;;;;17.04;58.19;101874.41;4993362;28;45395;-68
2021/09/23 06:56:40;;;;;;;;;;;;;;;;;;;;;
2021/09/23 06:59:11;;;;;;;;;17.25;17.25;;;;;16.90;58.49;101861.47;4982000;28;72147;-67
2021/09/23 07:01:56;;;;;;;;;;;;;;;;;;;;;
2021/09/23 07:04:34;;;;;;;;;;;;;;;;;;;;;
2021/09/23 07:07:00;;;;;;;;;30.00;27.25;;;;;16.97;58.54;101876.47;4982840;28;75244;-67
2021/09/23 07:09:26;;;;;;;;;23.25;21.25;;;;;16.81;58.09;101834.88;4983979;28;45515;-67
2021/09/23 07:11:51;;;;;;;;;26.00;22.00;;;;;16.81;58.36;101843.81;4986484;28;45466;-67
2021/09/23 07:14:17;;;;;;;;;21.25;18.00;;;;;16.72;58.54;101840.63;5012906;28;45551;-67
2021/09/23 07:16:52;;;;;;;;;18.75;17.75;;;;;16.82;58.40;101868.97;4994974;28;45423;-67
2021/09/23 07:19:20;;;;;;;;;19.50;19.50;;;;;16.67;58.79;101836.31;4987649;28;45546;-67
2021/09/23 07:21:59;;;;;;;;;18.50;18.25;;;;;16.81;58.80;101854.59;4985096;28;45468;-68
2021/09/23 07:24:27;;;;;;;;;25.00;24.00;;;;;16.75;58.57;101840.50;4990942;28;45372;-68
2021/09/23 07:26:53;;;;;;;;;21.00;20.25;;;;;16.49;58.56;101804.69;4994650;28;47932;-68
2021/09/23 07:29:29;;;;;;;;;;;;;;;;;;;;;
2021/09/23 07:32:07;;;;;;;;;23.50;23.50;;;;;16.91;58.75;101862.38;4980452;28;66614;-68
2021/09/23 07:34:42;;;;;;;;;25.50;24.50;;;;;16.87;59.13;101852.63;5008652;28;45456;-68
2021/09/23 07:37:12;;;;;;;;;30.25;27.00;;;;;16.82;59.07;101844.69;5001073;28;47049;-68
2021/09/23 07:39:39;;;;;;;;;27.75;25.50;;;;;16.89;59.01;101840.84;4992892;28;45189;-68
2021/09/23 07:42:17;;;;;;;;;;;;;;;;;;;;;
2021/09/23 07:44:55;;;;;;;;;;;;;;;;;;;;;
2021/09/23 07:47:26;;;;;;;;;24.50;24.00;;;;;16.86;58.71;101819.41;4985488;28;75326;-68
2021/09/23 07:49:53;;;;;;;;;23.50;22.25;;;;;16.98;58.84;101840.44;4987129;28;45530;-74
2021/09/23 07:52:18;;;;;;;;;23.25;22.00;;;;;16.84;59.00;101822.16;4988816;28;45355;-77
2021/09/23 07:54:44;;;;;;;;;25.25;22.00;;;;;16.82;59.07;101824.00;4999419;28;45410;-75
2021/09/23 07:57:38;;;;;;;;;23.75;22.00;;;;;17.03;58.63;101846.53;4994317;28;46159;-71
2021/09/23 08:01:00;;;;;;;;;;;;;;;;;;;;;
2021/09/23 08:24:50;;;;;;;;;;;;;;;;;;;;;
2021/09/23 08:37:41;;;;;;;;;27.25;27.00;;;;;17.22;58.28;101814.28;4839136;29;46299;-69
2021/09/23 08:51:40;;;;;;;;;;;;;;;;;;;;;
2021/09/23 09:16:02;;;;;;;;;;;;;;;;;;;;;
2021/09/23 09:44:28;;;;;;;;;14.75;13.75;;;;;18.40;54.01;101811.66;4707404;30;45588;-66
2021/09/23 09:46:28;;;;;;;;;16.00;14.00;;;;;18.62;53.81;101847.50;4745419;29;46243;-69
2021/09/23 10:06:24;;;;;;;;;;;;;;;;;;;;;
2021/09/23 10:09:34;;;;;;;;;;;;;;;;;;;;;
2021/09/23 10:16:08;;;;;;;;;;;;;;;;;;;;;
2021/09/23 10:19:28;;;;;;;;;17.25;13.50;;;;;18.94;53.28;101819.84;4985935;28;68838;-67
2021/09/23 10:35:10;;;;;;;;;;;;;;;;;;;;;
2021/09/23 10:38:01;;;;;;;;;14.00;13.75;;;;;19.00;53.00;101782.53;4989864;28;75101;-68
2021/09/23 10:41:09;;;;;;;;;;;;;;;;;;;;;
2021/09/23 10:44:25;;;;;;;;;;;;;;;;;;;;;
2021/09/23 10:47:15;;;;;;;;;13.00;13.00;;;;;19.23;52.52;101773.22;4991699;28;71171;-68
2021/09/23 10:50:18;;;;;;;;;;;;;;;;;;;;;
2021/09/23 10:57:05;;;;;;;;;;;;;;;;;;;;;
2021/09/23 11:00:21;;;;;;;;;;;;;;;;;;;;;
2021/09/23 11:06:56;;;;;;;;;;;;;;;;;;;;;
2021/09/23 11:13:36;;;;;;;;;;;;;;;;;;;;;
2021/09/23 11:20:16;;;;;;;;;;;;;;;;;;;;;
2021/09/23 11:23:44;;;;;;;;;;;;;;;;;;;;;
2021/09/23 11:57:42;;;;;;;;;11.25;11.25;;;;;19.93;48.78;101672.88;4675746;23;46093;-70
2021/09/23 13:06:09;;;;;;;;;14.75;14.25;;;;;20.98;47.24;101676.69;4969676;28;45274;-68
2021/09/23 13:08:43;;;;;;;;;14.25;12.50;;;;;20.83;47.76;101648.66;4992010;28;45434;-70
2021/09/23 13:11:13;;;;;;;;;11.00;10.00;;;;;20.71;47.05;101632.19;4979532;28;45468;-69
2021/09/23 13:13:46;;;;;;;;;10.25;8.75;;;;;20.99;47.56;101662.16;4979214;28;45572;-69
2021/09/23 13:20:34;;;;;;;;;;;;;;;;;;;;;
2021/09/23 13:27:40;;;;;;;;;;;;;;;;;;;;;
2021/09/23 13:31:03;;;;;;;;;;;;;;;;;;;;;
2021/09/23 13:37:44;;;;;;;;;;;;;;;;;;;;;
2021/09/23 13:58:04;;;;;;;;;;;;;;;;;;;;;
2021/09/23 14:04:49;;;;;;;;;;;;;;;;;;;;;
2021/09/23 14:48:29;;;;;;;;;;;;;;;;;;;;;
2021/09/23 14:58:28;;;;;;;;;6.50;6.50;;;;;22.06;45.00;101566.56;4975547;28;45641;-68
2021/09/23 15:00:53;;;;;;;;;8.25;8.00;;;;;21.88;44.79;101533.34;4974321;28;46426;-68
2021/09/23 15:03:22;;;;;;;;;10.75;10.00;;;;;21.97;45.56;101549.91;4980417;28;45379;-67
2021/09/23 15:05:49;;;;;;;;;11.75;11.75;;;;;22.07;45.11;101562.84;4981309;28;45423;-67
2021/09/23 15:08:15;;;;;;;;;9.00;8.25;;;;;22.11;45.63;101570.69;4981247;28;45369;-67
2021/09/23 15:10:44;;;;;;;;;9.00;8.75;;;;;22.09;45.13;101566.38;4981981;28;46102;-67
2021/09/23 15:13:11;;;;;;;;;8.50;8.25;;;;;22.01;45.42;101540.53;4961408;28;45514;-67
2021/09/23 15:15:37;;;;;;;;;7.75;7.75;;;;;22.02;45.09;101536.00;4975884;28;45389;-67
2021/09/23 15:18:05;;;;;;;;;9.00;9.00;;;;;22.23;45.00;101565.41;4981655;28;45296;-67
2021/09/23 15:20:31;;;;;;;;;9.75;8.50;;;;;22.05;45.04;101532.19;4980377;28;47042;-67
2021/09/23 15:22:57;;;;;;;;;7.75;7.75;;;;;22.18;44.76;101552.13;4974651;28;45463;-67
2021/09/23 15:25:25;;;;;;;;;13.25;10.00;;;;;22.21;44.54;101563.66;4975360;28;45344;-68
2021/09/23 15:27:51;;;;;;;;;9.00;9.00;;;;;21.96;44.62;101522.81;4980452;28;45516;-67
2021/09/23 15:30:17;;;;;;;;;7.25;7.25;;;;;22.13;44.96;101543.41;4980324;28;45599;-67
2021/09/23 15:32:42;;;;;;;;;9.75;9.75;;;;;22.13;45.26;101529.81;4980688;28;45302;-67
2021/09/23 15:35:09;;;;;;;;;8.00;6.25;;;;;22.27;45.31;101556.03;4981753;28;45299;-67
2021/09/23 15:37:34;;;;;;;;;10.25;10.25;;;;;21.92;45.63;101503.13;4979983;28;45382;-68
2021/09/23 15:40:03;;;;;;;;;9.50;9.00;;;;;22.21;44.94;101544.63;4981172;28;45453;-67
2021/09/23 15:42:28;;;;;;;;;8.25;7.25;;;;;22.20;44.99;101534.75;4981499;28;45497;-67
2021/09/23 15:44:54;;;;;;;;;7.75;7.75;;;;;22.09;44.68;101509.28;4981263;28;45292;-67
2021/09/23 15:47:20;;;;;;;;;8.50;8.50;;;;;22.25;45.28;101537.13;4981132;28;45502;-67
2021/09/23 15:49:46;;;;;;;;;10.00;8.50;;;;;22.11;44.80;101521.75;4981220;28;46188;-67
2021/09/23 15:52:12;;;;;;;;;8.25;7.00;;;;;21.96;44.34;101492.91;4979451;28;45398;-67
2021/09/23 15:54:38;;;;;;;;;6.75;6.75;;;;;22.00;44.64;101499.88;4981194;28;45646;-67
2021/09/23 15:57:04;;;;;;;;;7.25;7.25;;;;;21.94;44.44;101492.16;4981125;28;45302;-67
2021/09/23 15:59:32;;;;;;;;;8.00;8.00;;;;;22.01;44.44;101507.06;4979141;28;46881;-68
2021/09/23 16:01:58;;;;;;;;;7.75;7.00;;;;;22.29;44.15;101546.00;4981238;28;45465;-67
2021/09/23 16:04:23;;;;;;;;;2.50;1.75;;;;;22.28;44.01;101552.38;4976592;28;45348;-67
2021/09/23 16:06:49;;;;;;;;;10.75;8.75;;;;;21.97;44.47;101491.97;4976638;28;45467;-67
2021/09/23 16:09:16;;;;;;;;;9.00;8.50;;;;;22.20;44.24;101537.47;4980463;28;46552;-68
2021/09/23 16:11:41;;;;;;;;;6.00;6.00;;;;;21.99;43.64;101514.47;4971974;28;45411;-69
2021/09/23 16:14:07;;;;;;;;;8.50;8.50;;;;;21.93;44.06;101490.41;4974654;28;45330;-69
2021/09/23 16:16:32;;;;;;;;;5.00;5.00;;;;;22.28;44.28;101549.66;4980657;28;45463;-69
2021/09/23 16:18:59;;;;;;;;;6.75;6.00;;;;;22.04;44.58;101504.16;4978990;28;47829;-69
2021/09/23 16:21:25;;;;;;;;;8.25;7.75;;;;;22.19;45.10;101543.84;4979064;28;45845;-69
2021/09/23 16:23:51;;;;;;;;;7.50;6.50;;;;;22.04;45.05;101522.31;4980050;28;45488;-65
2021/09/23 16:26:18;;;;;;;;;7.00;7.00;;;;;22.12;44.83;101530.78;4980585;28;45485;-68
2021/09/23 16:28:45;;;;;;;;;6.25;6.25;;;;;22.02;45.08;101525.13;4979256;28;48181;-67
2021/09/23 16:31:14;;;;;;;;;7.50;7.50;;;;;22.20;44.96;101547.44;4980295;28;45577;-68
2021/09/23 16:33:39;;;;;;;;;6.75;6.00;;;;;22.26;45.04;101557.03;4979019;28;45422;-70
2021/09/23 16:36:05;;;;;;;;;7.25;6.00;;;;;22.16;45.42;101552.22;4979254;28;46160;-70
2021/09/23 16:38:32;;;;;;;;;7.50;7.25;;;;;22.24;45.77;101559.88;4980396;28;45407;-71
2021/09/23 16:40:57;;;;;;;;;9.25;6.25;;;;;22.08;45.21;101538.28;4979184;28;45454;-72
2021/09/23 16:43:22;;;;;;;;;7.75;7.00;;;;;22.14;45.52;101548.75;4979110;28;45364;-72
2021/09/23 16:45:48;;;;;;;;;9.50;8.00;;;;;22.16;46.16;101543.22;4980566;28;45436;-72
2021/09/23 16:48:13;;;;;;;;;7.50;7.50;;;;;21.96;45.80;101511.94;4980023;28;46266;-68
2021/09/23 16:50:39;;;;;;;;;8.50;8.50;;;;;22.20;45.97;101559.22;4977987;28;45528;-69
2021/09/23 16:53:05;;;;;;;;;7.50;7.50;;;;;22.08;45.98;101546.44;4977295;28;45522;-68
2021/09/23 16:55:30;;;;;;;;;7.00;7.00;;;;;21.98;46.50;101534.44;4980289;28;45384;-69
2021/09/23 16:57:56;;;;;;;;;9.25;8.25;;;;;21.88;45.90;101525.19;4980078;28;46451;-68
2021/09/23 17:00:22;;;;;;;;;9.00;8.25;;;;;22.08;46.04;101556.44;4956502;28;46264;-69
2021/09/23 17:02:48;;;;;;;;;11.00;9.00;;;;;21.96;46.62;101534.56;4978832;28;45331;-69
2021/09/23 17:05:14;;;;;;;;;8.25;8.25;;;;;22.02;46.59;101545.03;4978876;28;45413;-69
2021/09/23 17:07:42;;;;;;;;;7.50;7.50;;;;;21.70;46.73;101494.69;4979689;28;45460;-69
2021/09/23 17:10:09;;;;;;;;;12.00;10.25;;;;;22.09;47.41;101558.22;4979849;28;45631;-69
2021/09/23 17:12:38;;;;;;;;;9.50;8.25;;;;;21.88;47.00;101528.75;4980108;28;45225;-69
2021/09/23 17:15:06;;;;;;;;;8.25;8.25;;;;;21.90;46.76;101534.09;4980190;28;45305;-69
2021/09/23 17:17:32;;;;;;;;;9.25;9.00;;;;;21.99;46.82;101555.25;4979336;28;46458;-69
2021/09/23 17:19:58;;;;;;;;;9.25;8.25;;;;;21.80;47.33;101518.44;4964512;28;45425;-69
2021/09/23 17:22:24;;;;;;;;;8.25;7.75;;;;;22.00;47.40;101560.56;4958831;28;46351;-69
2021/09/23 17:24:49;;;;;;;;;11.00;8.75;;;;;21.79;47.41;101527.53;4960166;28;45320;-69
2021/09/23 17:27:15;;;;;;;;;8.25;8.25;;;;;21.79;47.46;101523.97;4976658;28;47926;-68
2021/09/23 17:29:40;;;;;;;;;6.50;6.50;;;;;21.76;47.65;101535.03;4979998;28;45178;-69
2021/09/23 17:32:06;;;;;;;;;8.75;6.50;;;;;21.87;47.59;101553.31;4978693;28;45352;-70
2021/09/23 17:34:32;;;;;;;;;8.00;8.00;;;;;21.82;47.98;101542.78;4978932;28;45495;-70
2021/09/23 17:36:57;;;;;;;;;11.00;11.00;;;;;21.64;48.08;101518.56;4979230;28;45300;-69
2021/09/23 17:39:23;;;;;;;;;8.00;8.00;;;;;21.70;47.32;101522.75;4978166;28;45256;-68
2021/09/23 17:41:49;;;;;;;;;8.00;7.00;;;;;21.86;47.82;101548.88;4979653;28;45230;-68
2021/09/23 17:44:14;;;;;;;;;9.75;9.50;;;;;21.69;47.94;101515.56;4977199;28;45771;-69
2021/09/23 17:46:40;;;;;;;;;9.75;8.75;;;;;21.71;48.14;101521.75;4978739;28;45615;-71
2021/09/23 17:49:05;;;;;;;;;8.25;8.25;;;;;21.84;48.00;101546.28;4978851;28;45531;-71
2021/09/23 17:51:31;;;;;;;;;12.25;10.50;;;;;21.82;48.03;101545.50;4979591;28;45556;-71
2021/09/23 17:53:57;;;;;;;;;11.25;9.00;;;;;21.73;48.53;101533.38;4979477;28;45426;-71
2021/09/23 17:56:23;;;;;;;;;10.75;10.75;;;;;21.77;48.37;101548.53;4979466;28;46450;-72
2021/09/23 17:58:49;;;;;;;;;11.25;11.00;;;;;21.51;48.66;101500.50;4962183;28;45813;-71
2021/09/23 18:01:14;;;;;;;;;12.00;12.00;;;;;21.58;48.89;101523.53;4977797;28;45488;-72
2021/09/23 18:03:40;;;;;;;;;8.50;8.50;;;;;21.69;49.30;101553.59;4978356;28;45351;-72
2021/09/23 18:06:06;;;;;;;;;6.25;6.25;;;;;21.57;48.88;101532.69;4982362;28;46196;-73
2021/09/23 18:08:32;;;;;;;;;10.75;9.25;;;;;21.59;48.83;101541.59;4979332;28;45447;-72
2021/09/23 18:10:58;;;;;;;;;6.75;6.75;;;;;21.53;48.90;101537.44;4969876;28;45470;-72
2021/09/23 18:13:24;;;;;;;;;10.75;10.75;;;;;21.59;49.19;101556.03;4982337;28;45593;-68
2021/09/23 18:15:52;;;;;;;;;9.25;8.00;;;;;21.14;49.45;101484.75;4979912;28;46692;-67
2021/09/23 18:18:17;;;;;;;;;7.50;7.50;;;;;21.37;49.56;101521.25;4968697;28;45400;-68
2021/09/23 18:20:42;;;;;;;;;10.75;10.00;;;;;21.53;49.17;101547.44;4981346;28;45453;-68
2021/09/23 18:23:08;;;;;;;;;11.00;11.00;;;;;21.51;49.20;101555.69;4982593;28;45510;-68
2021/09/23 18:25:33;;;;;;;;;10.25;10.25;;;;;21.45;49.38;101550.59;4982604;28;45450;-68
2021/09/23 18:27:59;;;;;;;;;12.00;12.00;;;;;21.41;49.94;101549.94;4982730;28;45303;-67
2021/09/23 18:30:25;;;;;;;;;12.75;10.50;;;;;21.42;50.22;101554.41;4981541;28;45289;-68
2021/09/23 18:32:50;;;;;;;;;15.25;11.50;;;;;21.32;50.17;101544.22;4982857;28;45312;-67
2021/09/23 18:35:17;;;;;;;;;12.00;11.00;;;;;21.29;50.14;101546.19;4978101;28;46258;-68
2021/09/23 18:37:44;;;;;;;;;16.00;13.50;;;;;21.09;50.94;101530.31;4982204;28;45349;-68
2021/09/23 18:40:10;;;;;;;;;13.50;12.50;;;;;21.33;50.19;101579.44;4982721;28;45430;-68